Time;durP1;ratioP1;P1;durP2;ratioP2;P2;SDS_P1;SDS_P2;PMS_P1;PMS_P2;Temp;Humidity;BMP_temperature;BMP_pressure;BME280_temperature;BME280_humidity;BME280_pressure;Samples;Min_cycle;Max_cycle;Signal;HPM_P1;HPM_P2
2023/07/02 00:00:07;;;;;;;0.87;0.87;;;19.40;99.90;;;19.82;nan;99964.06;4987566;28;20641;-68
2023/07/02 00:02:37;;;;;;;1.73;1.10;;;19.40;99.90;;;19.80;nan;99953.66;4989739;28;21020;-67
2023/07/02 00:05:06;;;;;;;0.80;0.80;;;19.50;99.90;;;19.82;nan;99956.94;4992554;28;20598;-66
2023/07/02 00:07:35;;;;;;;0.97;0.97;;;19.50;99.90;;;19.87;nan;99961.66;4993736;28;20681;-66
2023/07/02 00:10:04;;;;;;;1.30;1.20;;;19.50;99.90;;;19.85;nan;99953.91;4975357;28;20687;-69
2023/07/02 00:12:31;;;;;;;1.10;1.10;;;19.50;99.90;;;19.89;nan;99959.69;4974699;28;20633;-69
2023/07/02 00:14:58;;;;;;;0.90;0.90;;;19.50;99.90;;;19.88;nan;99952.72;4980112;28;20630;-66
2023/07/02 00:17:25;;;;;;;1.00;1.00;;;19.50;99.90;;;19.89;nan;99964.97;4993147;28;20649;-69
2023/07/02 00:19:52;;;;;;;0.93;0.93;;;19.50;99.90;;;19.88;nan;99974.72;4990702;28;20637;-66
2023/07/02 00:22:20;;;;;;;1.40;1.30;;;19.50;99.90;;;19.88;nan;99972.09;4993188;28;20622;-67
2023/07/02 00:24:50;;;;;;;0.87;0.87;;;19.60;99.90;;;19.91;nan;99973.53;4975423;28;20610;-68
2023/07/02 00:27:17;;;;;;;1.13;1.13;;;19.50;99.90;;;19.92;nan;99977.81;4993568;28;20668;-67
2023/07/02 00:29:44;;;;;;;0.93;0.80;;;19.50;99.90;;;19.91;nan;99978.84;4990840;28;20677;-65
2023/07/02 00:32:11;;;;;;;1.10;1.10;;;19.60;99.90;;;19.88;nan;99980.03;4992861;28;20626;-66
2023/07/02 00:34:38;;;;;;;2.20;1.13;;;19.50;99.90;;;19.86;nan;99979.41;5002805;28;20625;-67
2023/07/02 00:37:05;;;;;;;1.00;0.90;;;19.50;99.90;;;19.81;nan;99984.41;4995493;28;20728;-66
2023/07/02 00:39:32;;;;;;;1.10;1.07;;;19.50;99.90;;;19.76;nan;99978.03;4994765;28;20649;-66
2023/07/02 00:42:03;;;;;;;1.50;1.40;;;19.40;99.90;;;19.71;nan;99981.25;4988322;28;20646;-66
2023/07/02 00:44:30;;;;;;;1.13;1.10;;;19.40;99.90;;;19.67;nan;99985.25;4982629;28;20649;-65
2023/07/02 00:46:58;;;;;;;1.00;1.00;;;19.30;99.90;;;19.65;nan;99984.63;4990376;28;20692;-69
2023/07/02 00:49:25;;;;;;;1.00;1.00;;;19.30;99.90;;;19.62;nan;99990.28;5004551;28;20672;-66
2023/07/02 00:51:52;;;;;;;1.10;1.10;;;19.30;99.90;;;19.58;nan;99986.34;4997851;28;21036;-68
2023/07/02 00:54:19;;;;;;;1.40;1.30;;;19.30;99.90;;;19.57;nan;99990.00;4988131;28;21027;-66
2023/07/02 00:56:46;;;;;;;1.63;1.27;;;19.20;99.90;;;19.54;nan;99986.91;4986803;28;20662;-66
2023/07/02 00:59:13;;;;;;;0.77;0.77;;;19.20;99.90;;;19.55;nan;99986.72;4988107;28;20630;-66
2023/07/02 01:01:40;;;;;;;1.00;1.00;;;19.20;99.90;;;19.56;nan;99982.25;4969023;28;21026;-67
2023/07/02 01:04:07;;;;;;;1.50;1.50;;;19.20;99.90;;;19.56;nan;99984.88;4996024;28;20626;-66
2023/07/02 01:06:37;;;;;;;1.33;1.23;;;19.20;99.90;;;19.56;nan;100000.78;4990920;28;20653;-68
2023/07/02 01:09:05;;;;;;;0.90;0.90;;;19.20;99.90;;;19.55;nan;99993.84;4989160;28;21174;-66
2023/07/02 01:11:38;;;;;;;1.00;1.00;;;19.20;99.90;;;19.51;nan;100000.47;4989648;28;20654;-67
2023/07/02 01:14:22;;;;;;;2.33;1.00;;;19.20;99.90;;;19.48;nan;100001.69;4992191;28;20661;-66
2023/07/02 01:16:51;;;;;;;0.93;0.90;;;19.10;99.90;;;19.44;nan;100004.88;4991675;28;20657;-66
2023/07/02 01:19:51;;;;;;;1.10;1.10;;;19.10;99.90;;;19.44;nan;99996.94;4976084;28;20630;-68
2023/07/02 01:22:26;;;;;;;0.80;0.80;;;19.10;99.90;;;19.43;nan;99990.81;4970429;28;20634;-66
2023/07/02 01:24:55;;;;;;;1.00;1.00;;;19.10;99.90;;;19.39;nan;100000.13;4983982;28;21505;-67
2023/07/02 01:27:22;;;;;;;1.93;1.10;;;19.10;99.90;;;19.38;nan;100000.31;4993574;28;20661;-67
2023/07/02 01:29:53;;;;;;;0.80;0.80;;;19.10;99.90;;;19.36;nan;99991.75;4989710;28;21268;-69
2023/07/02 01:32:20;;;;;;;0.90;0.90;;;19.10;99.90;;;19.33;nan;99990.25;4992243;28;20641;-66
2023/07/02 01:34:48;;;;;;;1.23;1.23;;;19.00;99.90;;;19.31;nan;99995.69;5006295;28;20873;-66
2023/07/02 01:37:18;;;;;;;1.73;1.30;;;19.00;99.90;;;19.28;nan;100001.38;4996782;28;20674;-66
2023/07/02 01:39:45;;;;;;;0.87;0.87;;;19.00;99.90;;;19.23;nan;99998.44;4993157;28;20649;-68
2023/07/02 01:42:16;;;;;;;1.50;1.40;;;18.90;99.90;;;19.21;nan;100007.53;5011676;28;20710;-68
2023/07/02 01:44:46;;;;;;;1.20;1.10;;;18.90;99.90;;;19.23;nan;100000.25;4996378;28;20631;-67
2023/07/02 01:47:13;;;;;;;1.13;1.10;;;18.90;99.90;;;19.25;nan;100012.28;4991199;28;20670;-68
2023/07/02 01:49:40;;;;;;;2.07;1.20;;;18.90;99.90;;;19.26;nan;100016.59;4970894;28;20670;-65
2023/07/02 01:52:07;;;;;;;1.03;1.03;;;18.90;99.90;;;19.22;nan;100020.63;4988456;28;20677;-66
2023/07/02 01:54:36;;;;;;;1.23;1.23;;;18.90;99.90;;;19.24;nan;100023.91;4994293;28;20629;-65
2023/07/02 01:57:04;;;;;;;0.77;0.77;;;18.90;99.90;;;19.21;nan;100015.47;4995292;28;20677;-69
2023/07/02 01:59:31;;;;;;;1.00;1.00;;;18.90;99.90;;;19.19;nan;100015.66;4989237;28;20634;-68
2023/07/02 02:01:59;;;;;;;1.07;1.07;;;18.90;99.90;;;19.18;nan;100007.94;4990787;28;20668;-67
2023/07/02 02:04:26;;;;;;;0.93;0.93;;;18.90;99.90;;;19.18;nan;100007.94;4970377;28;20647;-68
2023/07/02 02:06:53;;;;;;;0.90;0.90;;;18.90;99.90;;;19.17;nan;100019.50;4990567;28;20697;-66
2023/07/02 02:09:20;;;;;;;1.10;1.00;;;18.90;99.90;;;19.13;nan;100016.41;4990180;28;20646;-66
2023/07/02 02:11:52;;;;;;;1.30;1.20;;;18.80;99.90;;;19.10;nan;100011.44;4997303;28;20721;-67
2023/07/02 02:14:19;;;;;;;1.00;1.00;;;18.80;99.90;;;19.09;nan;100024.88;4984080;28;20610;-65
2023/07/02 02:16:46;;;;;;;1.00;1.00;;;18.80;99.90;;;19.04;nan;100021.91;4959532;28;20674;-68
2023/07/02 02:19:14;;;;;;;1.17;1.17;;;18.70;99.90;;;19.00;nan;100029.41;5000185;28;20609;-67
2023/07/02 02:21:42;;;;;;;1.43;1.33;;;18.70;99.90;;;18.97;nan;100026.31;4992247;28;20684;-66
2023/07/02 02:24:10;;;;;;;4.30;0.93;;;18.70;99.90;;;18.96;nan;100037.84;4999397;28;20630;-65
2023/07/02 02:26:37;;;;;;;1.10;1.10;;;18.60;99.90;;;18.93;nan;100031.09;4989554;28;20666;-66
2023/07/02 02:29:04;;;;;;;1.50;1.30;;;18.70;99.90;;;18.94;nan;100032.75;4985402;28;21001;-66
2023/07/02 02:31:31;;;;;;;1.03;1.03;;;18.60;99.90;;;18.95;nan;100028.31;4988217;28;21071;-68
2023/07/02 02:33:58;;;;;;;1.23;1.17;;;18.60;99.90;;;18.95;nan;100028.31;4987447;28;20618;-66
2023/07/02 02:36:25;;;;;;;1.03;1.03;;;18.70;99.90;;;18.94;nan;100026.66;4990983;28;20666;-67
2023/07/02 02:38:52;;;;;;;1.67;1.50;;;18.60;99.90;;;18.90;nan;100025.38;4991450;28;20641;-65
2023/07/02 02:41:19;;;;;;;0.97;0.97;;;18.60;99.90;;;18.88;nan;100025.56;4991907;28;20660;-65
2023/07/02 02:43:46;;;;;;;1.33;1.27;;;18.60;99.90;;;18.89;nan;100029.03;4986415;28;20626;-66
2023/07/02 02:46:21;;;;;;;1.60;1.50;;;18.60;99.90;;;18.89;nan;100026.38;4980028;28;21292;-66
2023/07/02 02:48:49;;;;;;;4.17;1.73;;;18.60;99.90;;;18.92;nan;100037.41;4937675;28;20643;-66
2023/07/02 02:51:16;;;;;;;1.10;1.00;;;18.60;99.90;;;18.91;nan;100033.09;4970977;28;20667;-69
2023/07/02 02:53:43;;;;;;;2.87;1.80;;;18.60;99.90;;;18.86;nan;100029.38;4974019;28;20631;-65
2023/07/02 02:56:10;;;;;;;2.53;1.80;;;18.60;99.90;;;18.85;nan;100033.00;4987615;28;20662;-65
2023/07/02 02:58:37;;;;;;;1.50;1.50;;;18.50;99.90;;;18.85;nan;100039.09;4988515;28;20625;-66
2023/07/02 03:01:10;;;;;;;1.60;1.50;;;18.50;99.90;;;18.85;nan;100027.72;4987910;28;20630;-65
2023/07/02 03:03:44;;;;;;;2.33;2.13;;;18.50;99.90;;;18.89;nan;100034.31;4989006;28;20617;-67
2023/07/02 03:06:14;;;;;;;1.50;1.40;;;18.50;99.90;;;18.90;nan;100031.47;4988615;28;20649;-67
2023/07/02 03:08:41;;;;;;;2.10;1.90;;;18.60;99.90;;;18.93;nan;100030.31;4994207;28;20630;-66
2023/07/02 03:11:11;;;;;;;1.83;1.70;;;18.60;99.90;;;18.96;nan;100037.84;4988219;28;20692;-69
2023/07/02 03:13:38;;;;;;;1.63;1.53;;;18.70;99.90;;;18.96;nan;100030.75;4978839;28;20641;-67
2023/07/02 03:16:05;;;;;;;2.50;1.50;;;18.70;99.90;;;18.98;nan;100035.88;4993694;28;20657;-70
2023/07/02 03:18:32;;;;;;;1.50;1.40;;;18.70;99.90;;;18.98;nan;100028.75;4989255;28;20638;-71
2023/07/02 03:21:00;;;;;;;1.97;1.50;;;18.70;99.90;;;18.98;nan;100035.88;4973739;28;20654;-66
2023/07/02 03:23:27;;;;;;;1.43;1.23;;;18.70;99.90;;;18.97;nan;100036.88;4990130;28;20622;-65
2023/07/02 03:25:54;;;;;;;6.00;1.57;;;18.70;99.90;;;18.91;nan;100042.88;4989188;28;20662;-65
2023/07/02 03:28:21;;;;;;;1.80;1.70;;;18.60;99.90;;;18.86;nan;100039.94;4989203;28;20634;-70
2023/07/02 03:30:47;;;;;;;2.23;1.93;;;18.60;99.90;;;18.81;nan;100034.34;4969347;28;20685;-67
2023/07/02 03:33:15;;;;;;;2.40;2.03;;;18.50;99.90;;;18.79;nan;100037.19;4978607;28;20642;-67
2023/07/02 03:35:42;;;;;;;1.87;1.47;;;18.50;99.90;;;18.76;nan;100042.00;4998001;28;20637;-66
2023/07/02 03:38:09;;;;;;;2.03;1.53;;;18.50;99.90;;;18.72;nan;100046.81;4992626;28;20649;-69
2023/07/02 03:40:36;;;;;;;1.60;1.50;;;18.40;99.90;;;18.68;nan;100047.31;4995808;28;20642;-66
2023/07/02 03:43:03;;;;;;;1.70;1.60;;;18.40;99.90;;;18.68;nan;100044.69;4992898;28;21091;-67
2023/07/02 03:45:30;;;;;;;3.87;2.33;;;18.30;99.90;;;18.69;nan;100051.63;4992397;28;20614;-66
2023/07/02 03:47:57;;;;;;;1.93;1.70;;;18.30;99.90;;;18.68;nan;100050.78;4994289;28;21192;-67
2023/07/02 03:50:24;;;;;;;2.43;1.93;;;18.40;99.90;;;18.69;nan;100056.91;4993146;28;20684;-66
2023/07/02 03:52:51;;;;;;;5.90;2.07;;;18.40;99.90;;;18.70;nan;100055.94;4993989;28;20638;-66
2023/07/02 03:55:20;;;;;;;2.60;1.60;;;18.40;99.90;;;18.72;nan;100059.22;4992783;28;20622;-67
2023/07/02 03:57:47;;;;;;;2.07;1.67;;;18.40;99.90;;;18.74;nan;100059.84;4992810;28;21623;-65
2023/07/02 04:00:14;;;;;;;1.57;1.47;;;18.40;99.90;;;18.78;nan;100063.78;4994416;28;20605;-66
2023/07/02 04:02:41;;;;;;;3.77;2.40;;;18.40;99.90;;;18.79;nan;100068.06;4991949;28;20649;-65
2023/07/02 04:05:08;;;;;;;2.50;1.67;;;18.50;99.90;;;18.78;nan;100071.72;4993305;28;20661;-66
2023/07/02 04:07:36;;;;;;;2.83;2.23;;;18.50;99.90;;;18.78;nan;100069.91;4992269;28;20665;-68
2023/07/02 04:10:03;;;;;;;1.97;1.77;;;18.50;99.90;;;18.78;nan;100071.72;4992055;28;20645;-65
2023/07/02 04:12:31;;;;;;;5.43;2.40;;;18.40;99.90;;;18.78;nan;100075.19;4992949;28;20626;-67
2023/07/02 04:14:58;;;;;;;1.97;1.47;;;18.50;99.90;;;18.80;nan;100085.59;4993211;28;20631;-65
2023/07/02 04:17:25;;;;;;;2.40;2.00;;;18.50;99.90;;;18.77;nan;100086.75;4992382;28;21247;-65
2023/07/02 04:19:54;;;;;;;2.90;1.60;;;18.50;99.90;;;18.80;nan;100088.22;4993895;28;20667;-66
2023/07/02 04:22:22;;;;;;;2.40;1.90;;;18.50;99.90;;;18.79;nan;100089.22;4973171;28;21197;-66
2023/07/02 04:24:49;;;;;;;1.77;1.43;;;18.50;99.90;;;18.83;nan;100093.97;4990267;28;20618;-65
2023/07/02 04:27:19;;;;;;;2.13;1.70;;;18.50;99.90;;;18.95;nan;100083.81;4992537;28;20641;-65
2023/07/02 04:30:08;;;;;;;1.43;1.33;;;18.60;99.90;;;19.12;nan;100088.78;4991014;28;20619;-67
2023/07/02 04:32:35;;;;;;;1.03;0.93;;;18.80;99.90;;;19.25;nan;100096.13;4984090;28;20642;-67
2023/07/02 04:35:03;;;;;;;1.57;1.47;;;18.90;99.90;;;19.36;nan;100090.41;4992349;28;20602;-70
2023/07/02 04:37:29;;;;;;;1.43;1.27;;;19.10;99.90;;;19.54;nan;100093.56;4990837;28;20681;-66
2023/07/02 04:39:57;;;;;;;1.33;1.23;;;19.20;99.90;;;19.78;nan;100085.34;4992273;28;20641;-68
2023/07/02 04:42:27;;;;;;;2.47;1.53;;;19.40;99.90;;;19.94;nan;100081.72;5002272;28;20641;-66
2023/07/02 04:44:54;;;;;;;2.50;2.03;;;19.60;99.90;;;20.10;nan;100092.13;5011213;28;20637;-66
2023/07/02 04:47:22;;;;;;;2.20;1.70;;;19.80;99.90;;;20.20;nan;100084.75;5001986;28;20730;-66
2023/07/02 04:49:49;;;;;;;3.23;1.60;;;19.90;99.90;;;20.43;nan;100084.59;5010687;28;20695;-66
2023/07/02 04:52:16;;;;;;;1.60;1.50;;;20.10;99.90;;;20.63;nan;100096.25;4979136;28;20670;-65
2023/07/02 04:54:43;;;;;;;2.67;1.80;;;20.30;99.90;;;20.61;nan;100085.84;4991088;28;20629;-66
2023/07/02 04:57:10;;;;;;;3.30;1.80;;;20.30;99.90;;;20.69;nan;100084.88;4999274;28;20665;-67
2023/07/02 04:59:37;;;;;;;2.00;1.60;;;20.40;99.90;;;20.78;nan;100095.16;4946985;28;20633;-65
2023/07/02 05:02:04;;;;;;;5.10;1.60;;;20.40;99.90;;;20.89;nan;100094.66;4990855;28;20642;-65
2023/07/02 05:04:31;;;;;;;2.40;2.13;;;20.50;99.90;;;21.05;nan;100092.81;4990751;28;20635;-68
2023/07/02 05:07:00;;;;;;;7.20;2.00;;;20.70;99.90;;;21.15;nan;100101.25;4991740;28;20666;-65
2023/07/02 05:09:27;;;;;;;2.73;1.57;;;20.80;99.90;;;21.27;nan;100105.06;4989994;28;20641;-65
2023/07/02 05:11:54;;;;;;;2.73;2.17;;;20.90;99.90;;;21.39;nan;100104.34;4990230;28;20657;-66
2023/07/02 05:14:22;;;;;;;3.23;1.83;;;21.10;99.90;;;21.66;nan;100108.00;4993142;28;20664;-66
2023/07/02 05:16:49;;;;;;;2.40;1.87;;;21.30;99.90;;;21.90;nan;100114.72;4988411;28;20694;-68
2023/07/02 05:19:16;;;;;;;2.97;2.27;;;21.50;99.90;;;22.08;nan;100121.16;4981483;28;20626;-67
2023/07/02 05:21:43;;;;;;;2.17;1.77;;;21.70;99.90;;;22.19;nan;100122.44;5005097;28;20614;-67
2023/07/02 05:24:10;;;;;;;2.10;1.90;;;21.90;99.90;;;22.26;nan;100120.63;4990961;28;20646;-67
2023/07/02 05:26:37;;;;;;;2.73;2.30;;;22.00;99.90;;;22.36;nan;100126.38;4989348;28;20693;-69
2023/07/02 05:29:05;;;;;;;4.20;2.80;;;22.00;99.90;;;22.25;nan;100132.28;5006666;28;20624;-66
2023/07/02 05:31:34;;;;;;;3.87;2.67;;;21.90;99.90;;;22.08;nan;100137.09;4989948;28;20662;-68
2023/07/02 05:34:01;;;;;;;2.63;2.40;;;21.80;99.90;;;21.81;nan;100131.78;4995341;28;20630;-67
2023/07/02 05:36:28;;;;;;;3.97;2.50;;;21.60;99.90;;;21.60;nan;100133.50;5007797;28;20664;-69
2023/07/02 05:38:55;;;;;;;2.50;2.23;;;21.40;99.90;;;21.45;nan;100135.41;4992598;28;20625;-66
2023/07/02 05:41:22;;;;;;;2.73;2.53;;;21.20;99.90;;;21.27;nan;100135.06;4992843;28;20702;-69
2023/07/02 05:43:49;;;;;;;8.03;2.97;;;21.00;99.90;;;21.14;nan;100131.47;4981755;28;20646;-66
2023/07/02 05:46:16;;;;;;;3.27;2.90;;;20.90;99.90;;;21.12;nan;100134.31;4997454;28;20669;-68
2023/07/02 05:48:43;;;;;;;2.37;1.97;;;20.80;99.90;;;21.04;nan;100128.31;4990226;28;20614;-67
2023/07/02 05:51:10;;;;;;;3.73;2.53;;;20.80;99.90;;;21.04;nan;100136.28;4991164;28;20654;-67
2023/07/02 05:53:37;;;;;;;5.53;2.40;;;20.70;99.90;;;21.05;nan;100122.81;4991224;28;20618;-66
2023/07/02 05:56:04;;;;;;;3.20;2.37;;;20.70;99.90;;;21.10;nan;100132.84;4991230;28;20655;-66
2023/07/02 05:58:31;;;;;;;2.10;1.60;;;20.80;99.90;;;21.15;nan;100135.75;4990629;28;20669;-66
2023/07/02 06:01:12;;;;;;;4.30;2.40;;;20.80;99.90;;;21.24;nan;100134.63;4990369;28;20626;-67
2023/07/02 06:03:40;;;;;;;3.10;2.37;;;20.90;99.90;;;21.54;nan;100134.25;4990585;28;20657;-66
2023/07/02 06:06:07;;;;;;;3.30;2.90;;;21.10;99.90;;;22.13;nan;100136.50;4991993;28;20723;-65
2023/07/02 06:08:34;;;;;;;3.93;2.73;;;21.70;99.90;;;22.65;nan;100133.28;4989050;28;20642;-66
2023/07/02 06:11:01;;;;;;;4.73;2.57;;;22.10;99.90;;;23.23;nan;100139.75;4986674;28;20670;-67
2023/07/02 06:13:28;;;;;;;3.80;2.57;;;22.70;99.90;;;23.62;nan;100145.09;4982963;28;21114;-65
2023/07/02 06:15:55;;;;;;;6.30;3.50;;;23.10;99.90;;;23.81;nan;100149.56;4985129;28;20678;-66
2023/07/02 06:18:22;;;;;;;4.27;2.73;;;23.30;99.90;;;24.13;nan;100151.38;4985690;28;22507;-65
2023/07/02 06:20:50;;;;;;;4.50;2.90;;;23.60;99.70;;;24.44;nan;100142.69;4985562;28;20638;-66
2023/07/02 06:23:17;;;;;;;7.00;2.67;;;23.90;99.00;;;24.76;nan;100146.25;4990593;28;20675;-63
2023/07/02 06:25:44;;;;;;;4.97;2.60;;;24.20;97.90;;;24.89;nan;100148.84;4985147;28;20685;-64
2023/07/02 06:28:11;;;;;;;5.67;3.53;;;24.40;97.80;;;25.15;nan;100148.69;4984786;28;20658;-66
2023/07/02 06:30:38;;;;;;;5.20;3.03;;;24.70;97.00;;;25.46;nan;100156.69;4985600;28;20618;-67
2023/07/02 06:33:05;;;;;;;5.30;3.40;;;25.00;95.90;;;25.81;nan;100152.47;4984626;28;20670;-65
2023/07/02 06:35:32;;;;;;;6.30;3.33;;;25.30;94.70;;;26.01;nan;100154.94;4987323;28;20637;-66
2023/07/02 06:37:59;;;;;;;6.53;3.00;;;25.60;93.70;;;26.48;nan;100158.75;4993063;28;20639;-67
2023/07/02 06:40:26;;;;;;;4.77;3.20;;;26.00;93.20;;;27.10;nan;100165.56;4997771;28;20634;-65
2023/07/02 06:42:53;;;;;;;4.97;3.23;;;26.60;92.30;;;27.82;nan;100167.91;4991484;28;20650;-69
2023/07/02 06:45:20;;;;;;;11.97;3.20;;;27.30;90.90;;;28.55;nan;100164.69;4987661;28;20638;-66
2023/07/02 06:47:47;;;;;;;5.30;4.03;;;28.00;87.90;;;28.71;nan;100166.63;4993598;28;20666;-64
2023/07/02 06:50:14;;;;;;;6.97;4.50;;;28.30;83.20;;;29.24;nan;100161.72;4997647;28;20679;-65
2023/07/02 06:52:41;;;;;;;5.63;3.50;;;28.80;81.30;;;29.85;nan;100160.88;4996383;28;20658;-65
2023/07/02 06:55:08;;;;;;;4.27;3.53;;;29.40;77.90;;;29.82;nan;100161.34;4983132;28;20642;-66
2023/07/02 06:57:42;;;;;;;4.83;3.70;;;29.50;74.40;;;30.11;nan;100162.84;4984723;28;20665;-67
2023/07/02 07:00:09;;;;;;;9.77;5.00;;;29.70;72.70;;;30.75;nan;100163.13;4983661;28;20641;-65
2023/07/02 07:02:36;;;;;;;3.87;3.33;;;30.20;71.50;;;31.62;nan;100167.22;4985054;28;20681;-65
2023/07/02 07:05:04;;;;;;;4.20;3.20;;;31.10;68.00;;;32.31;nan;100162.50;4984089;28;20638;-69
2023/07/02 07:07:32;;;;;;;4.27;3.10;;;31.80;65.30;;;32.87;nan;100158.13;4983681;28;21447;-67
2023/07/02 07:09:59;;;;;;;5.80;4.20;;;32.50;63.00;;;33.28;nan;100159.00;4985761;28;21128;-65
2023/07/02 07:12:26;;;;;;;5.80;3.90;;;32.80;61.30;;;33.68;nan;100169.03;4980162;28;21063;-65
2023/07/02 07:14:53;;;;;;;7.17;3.90;;;33.30;59.30;;;33.89;nan;100163.31;4987607;28;20642;-65
2023/07/02 07:17:20;;;;;;;5.37;3.80;;;33.50;58.60;;;34.49;nan;100159.59;5002068;28;20703;-68
2023/07/02 07:19:47;;;;;;;3.60;3.30;;;34.00;58.30;;;34.84;nan;100148.59;5000084;28;21152;-66
2023/07/02 07:22:14;;;;;;;4.53;3.37;;;34.40;55.80;;;35.11;nan;100159.00;4996552;28;21190;-68
2023/07/02 07:24:42;;;;;;;5.40;3.77;;;34.70;55.10;;;35.44;nan;100158.19;4993854;28;20714;-65
2023/07/02 07:27:09;;;;;;;8.97;4.07;;;35.10;53.90;;;35.83;nan;100171.69;4984760;28;20662;-65
2023/07/02 07:29:36;;;;;;;5.90;3.97;;;35.40;53.30;;;36.28;nan;100163.06;4991444;28;20618;-70
2023/07/02 07:32:04;;;;;;;6.57;4.93;;;35.80;52.20;;;36.44;nan;100167.22;4963472;28;20937;-66
2023/07/02 07:34:33;;;;;;;3.83;3.50;;;36.10;51.20;;;36.66;nan;100168.56;4997621;28;20640;-65
2023/07/02 07:37:00;;;;;;;6.40;3.90;;;36.20;50.40;;;36.96;nan;100168.97;4993770;28;20689;-65
2023/07/02 07:39:27;;;;;;;7.00;4.50;;;36.50;50.30;;;37.48;nan;100165.19;4995041;28;20649;-66
2023/07/02 07:41:54;;;;;;;4.33;3.93;;;37.00;50.20;;;37.88;nan;100167.19;4992483;28;20642;-66
2023/07/02 07:44:21;;;;;;;8.50;5.30;;;37.50;49.20;;;37.70;nan;100167.22;4998959;28;20641;-66
2023/07/02 07:46:48;;;;;;;7.10;4.93;;;37.40;48.10;;;37.69;nan;100171.88;5005185;28;20660;-65
2023/07/02 07:49:14;;;;;;;7.37;5.33;;;37.40;48.00;;;37.92;nan;100170.94;4998464;28;20645;-67
2023/07/02 07:51:41;;;;;;;5.50;4.70;;;37.60;47.70;;;38.10;nan;100168.41;5001470;28;20662;-65
2023/07/02 07:54:08;;;;;;;6.47;5.00;;;37.90;46.90;;;38.05;nan;100180.22;4991085;28;20784;-69
2023/07/02 07:56:35;;;;;;;5.33;4.10;;;38.00;46.50;;;37.92;nan;100168.22;4992880;28;20674;-65
2023/07/02 07:59:02;;;;;;;10.20;5.50;;;37.90;46.20;;;37.70;nan;100167.22;4993919;28;21073;-65
2023/07/02 08:01:29;;;;;;;7.77;5.40;;;37.60;46.40;;;37.77;nan;100168.47;5002293;28;20634;-67
2023/07/02 08:03:56;;;;;;;8.77;5.73;;;37.70;46.20;;;37.57;nan;100173.47;4990976;28;20634;-65
2023/07/02 08:06:24;;;;;;;9.67;4.97;;;37.60;46.00;;;36.78;nan;100180.63;5002823;28;20726;-66
2023/07/02 08:08:51;;;;;;;8.47;6.27;;;36.90;46.20;;;35.35;nan;100176.19;4994212;28;20622;-65
2023/07/02 08:11:18;;;;;;;7.33;4.90;;;35.50;47.10;;;35.01;nan;100175.38;4990807;28;20652;-65
2023/07/02 08:13:45;;;;;;;8.77;5.23;;;34.90;48.30;;;34.24;nan;100175.97;4991137;28;20654;-66
2023/07/02 08:16:13;;;;;;;6.30;4.50;;;34.30;48.40;;;33.19;nan;100169.56;4991837;28;20658;-67
2023/07/02 08:18:40;;;;;;;6.90;5.07;;;33.20;49.40;;;31.74;nan;100178.63;4988959;28;20650;-66
2023/07/02 08:21:07;;;;;;;6.40;3.90;;;31.90;50.50;;;30.25;nan;100174.88;4993456;28;20988;-67
2023/07/02 08:23:35;;;;;;;10.50;5.37;;;30.50;51.70;;;29.98;nan;100168.59;4973208;28;20650;-64
2023/07/02 08:26:02;;;;;;;6.93;4.10;;;29.90;53.30;;;29.50;nan;100171.03;4985439;28;20721;-66
2023/07/02 08:28:30;;;;;;;9.23;4.90;;;29.40;54.30;;;28.68;nan;100167.97;4994495;28;21018;-66
2023/07/02 08:30:56;;;;;;;8.80;5.23;;;28.60;55.70;;;27.90;nan;100180.19;5011618;28;20624;-65
2023/07/02 08:33:24;;;;;;;16.70;6.27;;;27.70;57.00;;;27.46;nan;100174.31;4981678;28;20674;-67
2023/07/02 08:35:51;;;;;;;9.17;4.80;;;27.20;58.40;;;28.06;nan;100182.16;5008699;28;20657;-65
2023/07/02 08:38:18;;;;;;;8.97;5.10;;;27.60;58.90;;;29.34;nan;100182.59;4997838;28;20642;-66
2023/07/02 08:40:45;;;;;;;8.90;3.77;;;28.70;57.00;;;30.94;nan;100177.91;4987879;28;20634;-66
2023/07/02 08:43:12;;;;;;;6.57;3.97;;;30.20;54.90;;;31.50;nan;100195.44;4989943;28;20653;-67
2023/07/02 08:45:42;;;;;;;11.30;6.30;;;30.90;53.90;;;31.90;nan;100198.44;4982353;28;20634;-66
2023/07/02 08:48:10;;;;;;;8.03;5.33;;;31.20;53.60;;;31.24;nan;100191.66;4998429;28;20648;-65
2023/07/02 08:50:37;;;;;;;9.17;5.80;;;30.80;53.60;;;30.54;nan;100188.97;4998697;28;20676;-65
2023/07/02 08:53:04;;;;;;;11.30;4.97;;;30.10;54.60;;;30.29;nan;100194.03;5002813;28;20665;-64
2023/07/02 08:55:31;;;;;;;8.43;5.13;;;29.80;55.30;;;29.74;nan;100192.19;4997676;28;20629;-66
2023/07/02 08:57:59;;;;;;;8.07;4.50;;;29.30;55.60;;;28.93;nan;100192.59;4996897;28;20638;-66
2023/07/02 09:00:27;;;;;;;6.37;4.10;;;28.60;56.70;;;28.24;nan;100193.56;4992448;28;21094;-65
2023/07/02 09:02:54;;;;;;;8.73;4.27;;;28.00;57.90;;;27.69;nan;100200.31;4991066;28;20638;-65
2023/07/02 09:05:21;;;;;;;9.10;5.67;;;27.40;58.70;;;27.44;nan;100195.16;5002908;28;20664;-67
2023/07/02 09:07:50;;;;;;;5.87;3.80;;;27.00;59.00;;;27.19;nan;100199.03;4997320;28;20676;-66
2023/07/02 09:10:31;;;;;;;7.70;4.57;;;26.80;58.90;;;26.99;nan;100204.66;4988928;28;20626;-66
2023/07/02 09:13:09;;;;;;;9.43;4.77;;;26.60;59.30;;;26.70;nan;100205.44;4990792;28;20747;-65
2023/07/02 09:15:41;;;;;;;8.27;4.07;;;26.40;59.80;;;26.24;nan;100207.81;4991558;28;20649;-66
2023/07/02 09:18:21;;;;;;;11.93;5.17;;;25.90;61.00;;;26.12;nan;100205.88;5004360;28;20641;-66
2023/07/02 09:20:55;;;;;;;7.77;4.40;;;25.70;62.10;;;26.30;nan;100206.94;5012542;28;20617;-65
2023/07/02 09:23:22;;;;;;;8.80;5.20;;;25.70;61.60;;;26.45;nan;100212.72;4998549;28;20653;-66
2023/07/02 09:25:49;;;;;;;8.03;5.33;;;26.00;61.00;;;26.43;nan;100225.50;4992886;28;21206;-66
2023/07/02 09:28:19;;;;;;;10.63;5.87;;;26.00;60.90;;;26.22;nan;100224.06;4997063;28;21192;-66
2023/07/02 09:31:05;;;;;;;7.40;4.10;;;25.80;61.10;;;26.04;nan;100211.47;5002663;28;21183;-66
2023/07/02 09:33:32;;;;;;;7.40;4.90;;;25.60;62.00;;;25.88;nan;100217.38;4993062;28;20684;-64
2023/07/02 09:36:00;;;;;;;9.03;4.40;;;25.50;62.10;;;25.97;nan;100205.38;4986140;28;20662;-66
2023/07/02 09:38:27;;;;;;;10.27;5.20;;;25.50;62.00;;;26.05;nan;100207.75;4983408;28;20651;-67
2023/07/02 09:40:55;;;;;;;8.87;5.20;;;25.60;61.90;;;26.20;nan;100203.94;4989696;28;20713;-65
2023/07/02 09:43:24;;;;;;;10.00;5.90;;;25.70;62.00;;;26.42;nan;100189.09;4987843;28;20976;-66
2023/07/02 09:45:54;;;;;;;9.87;5.30;;;25.90;61.40;;;26.36;nan;100216.72;4976987;28;20658;-67
2023/07/02 09:48:25;;;;;;;8.20;4.40;;;25.90;60.70;;;26.20;nan;100211.94;4977743;28;20622;-67
2023/07/02 09:50:53;;;;;;;14.20;5.47;;;25.80;61.00;;;26.04;nan;100203.47;4991649;28;20631;-66
2023/07/02 09:53:20;;;;;;;7.17;4.23;;;25.60;61.30;;;25.80;nan;100206.97;4990166;28;20658;-65
2023/07/02 09:55:48;;;;;;;10.67;4.43;;;25.40;62.00;;;25.77;nan;100204.72;4990710;28;21194;-66
2023/07/02 09:58:16;;;;;;;18.97;7.50;;;25.30;61.80;;;25.95;nan;100210.13;4991217;28;20622;-65
2023/07/02 10:00:43;;;;;;;9.50;5.53;;;25.40;62.10;;;26.54;nan;100203.34;4970287;28;20626;-68
2023/07/02 10:03:10;;;;;;;4.37;2.20;;;26.00;60.70;;;27.39;nan;100200.38;4973204;28;21008;-66
2023/07/02 10:05:39;;;;;;;6.33;3.37;;;26.90;58.60;;;28.00;nan;100199.19;4982636;28;20677;-65
2023/07/02 10:08:16;;;;;;;9.83;5.33;;;27.60;57.70;;;27.78;nan;100206.16;4994135;28;21018;-67
2023/07/02 10:10:44;;;;;;;8.40;5.67;;;27.50;57.50;;;27.31;nan;100203.38;5002056;28;20632;-69
2023/07/02 10:13:11;;;;;;;57.77;22.77;;;27.00;58.60;;;26.81;nan;100202.81;4981344;28;20666;-67
2023/07/02 10:15:39;;;;;;;20.50;11.33;;;26.50;59.40;;;26.35;nan;100207.06;5003157;28;20640;-68
2023/07/02 10:18:07;;;;;;;15.93;7.80;;;26.00;60.30;;;26.12;nan;100205.88;4987241;28;21219;-65
2023/07/02 10:20:36;;;;;;;6.83;5.17;;;25.70;61.00;;;26.15;nan;100210.75;4999597;28;20640;-67
2023/07/02 10:23:05;;;;;;;7.77;4.87;;;25.70;61.50;;;26.28;nan;100206.34;4995151;28;20650;-68
2023/07/02 10:25:42;;;;;;;6.00;4.60;;;25.80;60.90;;;26.36;nan;100209.53;4992800;28;21013;-65
2023/07/02 10:28:22;;;;;;;10.33;5.23;;;25.80;60.20;;;26.30;nan;100209.59;4993015;28;20637;-65